Terminal Aerodrome Forecast
Issued by NWS North Platte, NE

Home | Current Version | Previous Version | Text Only | Print | Product List | Glossary On
Versions: 1 2 3 4 5 6 7 8 9 10 11 12 13 14 15 16 17 18 19 20
000
FTUS43 KLBF 261700
TAFVTN
TAF
KVTN 261736Z 2618/2718 12014KT P6SM OVC020
      TEMPO 2620/2621 SCT025 OVC050
     FM262100 13011KT P6SM OVC050
     FM270200 09008KT P6SM SCT050
     FM270900 VRB04KT P6SM SCT250=

USA.gov is the U.S. government's official web portal to all federal, state and local government web resources and services.